createdAt,value
2023-10-05T00:01:31.379Z,100.00
2023-10-05T00:03:59.436Z,100.00
2023-10-05T00:06:26.029Z,100.00
2023-10-05T00:08:57.308Z,100.00
2023-10-05T00:11:32.225Z,100.00
2023-10-05T00:14:07.342Z,100.00
2023-10-05T00:16:39.784Z,100.00
2023-10-05T00:19:12.653Z,100.00
2023-10-05T00:21:43.566Z,100.00
2023-10-05T00:24:12.267Z,100.00
2023-10-05T00:26:40.003Z,100.00
2023-10-05T00:29:24.880Z,100.00
2023-10-05T00:31:51.649Z,100.00
2023-10-05T00:34:21.304Z,100.00
2023-10-05T00:36:51.290Z,100.00
2023-10-05T00:39:21.146Z,100.00
2023-10-05T00:42:00.189Z,100.00
2023-10-05T00:44:27.875Z,100.00
2023-10-05T00:46:54.578Z,100.00
2023-10-05T00:49:24.018Z,100.00
2023-10-05T00:52:14.498Z,100.00
2023-10-05T00:54:41.857Z,100.00
2023-10-05T00:57:15.245Z,100.00
2023-10-05T00:59:43.641Z,100.00
2023-10-05T01:02:17.384Z,100.00
2023-10-05T01:04:54.306Z,100.00
2023-10-05T01:07:25.640Z,100.00
2023-10-05T01:10:16.298Z,100.00
2023-10-05T01:12:45.010Z,100.00
2023-10-05T01:15:17.043Z,100.00
2023-10-05T01:17:43.598Z,100.00
2023-10-05T01:20:18.097Z,100.00
2023-10-05T01:22:45.797Z,100.00
2023-10-05T01:25:15.064Z,100.00
2023-10-05T01:27:52.247Z,100.00
2023-10-05T01:30:19.879Z,100.00
2023-10-05T01:32:47.607Z,100.00
2023-10-05T01:35:16.933Z,100.00
2023-10-05T01:37:46.840Z,100.00
2023-10-05T01:40:20.482Z,100.00
2023-10-05T01:42:48.758Z,100.00
2023-10-05T01:45:22.492Z,100.00
2023-10-05T01:47:50.159Z,100.00
2023-10-05T01:50:27.544Z,100.00
2023-10-05T01:53:16.668Z,100.00
2023-10-05T01:55:46.601Z,100.00
2023-10-05T01:58:23.215Z,100.00
2023-10-05T02:00:50.197Z,100.00
2023-10-05T02:03:19.463Z,100.00
2023-10-05T02:05:48.569Z,100.00
2023-10-05T02:08:21.872Z,100.00
2023-10-05T02:10:49.559Z,100.00
2023-10-05T02:13:17.749Z,100.00
2023-10-05T02:15:48.821Z,100.00
2023-10-05T02:18:29.667Z,100.00
2023-10-05T02:21:07.938Z,100.00
2023-10-05T02:23:40.869Z,100.00
2023-10-05T02:26:34.678Z,100.00
2023-10-05T02:29:14.968Z,100.00
2023-10-05T02:31:57.389Z,100.00
2023-10-05T02:34:26.012Z,100.00
2023-10-05T02:36:55.941Z,100.00
2023-10-05T02:39:23.533Z,100.00
2023-10-05T02:41:52.143Z,100.00
2023-10-05T02:44:20.850Z,100.00
2023-10-05T02:46:48.634Z,100.00
2023-10-05T02:49:17.037Z,100.00
2023-10-05T02:51:44.483Z,100.00
2023-10-05T02:54:11.822Z,100.00
2023-10-05T02:56:41.361Z,100.00
2023-10-05T02:59:09.092Z,100.00
2023-10-05T03:01:38.985Z,100.00
2023-10-05T03:04:29.604Z,100.00
2023-10-05T03:06:56.908Z,100.00
2023-10-05T03:09:23.571Z,100.00
2023-10-05T03:11:53.196Z,100.00
2023-10-05T03:14:22.427Z,100.00
2023-10-05T03:16:49.493Z,100.00
2023-10-05T03:19:21.785Z,100.00
2023-10-05T03:21:59.526Z,100.00
2023-10-05T03:24:26.477Z,100.00
2023-10-05T03:26:53.438Z,100.00
2023-10-05T03:29:22.880Z,100.00
2023-10-05T03:32:16.583Z,100.00
2023-10-05T03:34:44.023Z,100.00
2023-10-05T03:37:14.254Z,100.00
2023-10-05T03:39:55.325Z,100.00
2023-10-05T03:42:23.184Z,100.00
2023-10-05T03:45:12.904Z,100.00
2023-10-05T03:47:39.920Z,100.00
2023-10-05T03:50:17.911Z,100.00
2023-10-05T03:52:47.946Z,100.00
2023-10-05T03:55:19.974Z,100.00
2023-10-05T03:57:49.554Z,100.00
2023-10-05T04:00:19.155Z,100.00
2023-10-05T04:02:47.606Z,100.00
2023-10-05T04:05:18.492Z,100.00
2023-10-05T04:07:45.202Z,100.00
2023-10-05T04:10:16.556Z,100.00
2023-10-05T04:12:43.420Z,100.00
2023-10-05T04:15:12.661Z,100.00
2023-10-05T04:17:40.089Z,100.00
2023-10-05T04:20:20.656Z,100.00
2023-10-05T04:22:49.052Z,100.00
2023-10-05T04:25:17.922Z,100.00
2023-10-05T04:27:47.858Z,100.00
2023-10-05T04:30:18.545Z,100.00
2023-10-05T04:32:45.629Z,100.00
2023-10-05T04:35:16.998Z,100.00
2023-10-05T04:37:44.873Z,100.00
2023-10-05T04:40:11.813Z,100.00
2023-10-05T04:42:38.330Z,100.00
2023-10-05T04:45:12.725Z,100.00
2023-10-05T04:47:39.845Z,100.00
2023-10-05T04:50:14.314Z,100.00
2023-10-05T04:52:41.146Z,100.00
2023-10-05T04:55:25.101Z,100.00
2023-10-05T04:57:53.552Z,100.00
2023-10-05T05:00:38.979Z,100.00
2023-10-05T05:03:24.143Z,100.00
2023-10-05T05:06:06.085Z,100.00
2023-10-05T05:08:36.511Z,100.00
2023-10-05T05:11:09.956Z,100.00
2023-10-05T05:13:37.398Z,100.00
2023-10-05T05:16:06.228Z,100.00
2023-10-05T05:18:33.524Z,100.00
2023-10-05T05:21:00.228Z,100.00
2023-10-05T05:23:26.801Z,100.00
2023-10-05T05:25:53.519Z,100.00
2023-10-05T05:28:20.231Z,100.00
2023-10-05T05:30:48.257Z,100.00
2023-10-05T05:33:14.985Z,100.00
2023-10-05T05:35:41.589Z,100.00
2023-10-05T05:38:10.868Z,100.00
2023-10-05T05:40:38.383Z,100.00
2023-10-05T05:43:09.887Z,100.00
2023-10-05T05:45:36.547Z,100.00
2023-10-05T05:48:10.156Z,100.00
2023-10-05T05:50:40.363Z,100.00
2023-10-05T05:53:09.528Z,100.00
2023-10-05T05:55:36.208Z,100.00
2023-10-05T05:58:02.770Z,100.00
2023-10-05T06:00:29.840Z,100.00
2023-10-05T06:02:58.654Z,100.00
2023-10-05T06:05:25.712Z,100.00
2023-10-05T06:07:52.480Z,100.00
2023-10-05T06:10:19.185Z,100.00
2023-10-05T06:12:51.741Z,100.00
2023-10-05T06:15:18.248Z,100.00
2023-10-05T06:17:45.062Z,100.00
2023-10-05T06:20:15.821Z,100.00
2023-10-05T06:22:46.583Z,100.00
2023-10-05T06:25:16.386Z,100.00
2023-10-05T06:27:46.568Z,100.00
2023-10-05T06:30:13.400Z,100.00
2023-10-05T06:32:41.667Z,100.00
2023-10-05T06:35:12.534Z,100.00
2023-10-05T06:37:40.187Z,100.00
2023-10-05T06:40:14.807Z,100.00
2023-10-05T06:42:43.073Z,100.00
2023-10-05T06:45:12.248Z,100.00
2023-10-05T06:47:39.259Z,100.00
2023-10-05T06:50:09.328Z,100.00
2023-10-05T06:52:40.877Z,100.00
2023-10-05T06:55:08.682Z,100.00
2023-10-05T06:57:39.139Z,100.00
2023-10-05T07:00:13.129Z,100.00
2023-10-05T07:02:40.958Z,100.00
2023-10-05T07:05:08.908Z,100.00
2023-10-05T07:07:36.311Z,100.00
2023-10-05T07:10:07.330Z,100.00
2023-10-05T07:12:40.016Z,100.00
2023-10-05T07:15:07.370Z,100.00
2023-10-05T07:17:33.953Z,100.00
2023-10-05T07:20:00.607Z,100.00
2023-10-05T07:22:27.216Z,100.00
2023-10-05T07:24:53.816Z,100.00
2023-10-05T07:27:20.372Z,100.00
2023-10-05T07:29:48.664Z,100.00
2023-10-05T07:32:15.408Z,100.00
2023-10-05T07:34:42.368Z,100.00
2023-10-05T07:37:12.370Z,100.00
2023-10-05T07:39:42.362Z,100.00
2023-10-05T07:42:09.873Z,100.00
2023-10-05T07:44:38.610Z,100.00
2023-10-05T07:47:06.349Z,100.00
2023-10-05T07:49:35.903Z,100.00
2023-10-05T07:52:04.352Z,100.00
2023-10-05T07:54:35.216Z,100.00
2023-10-05T07:57:02.335Z,100.00
2023-10-05T07:59:29.625Z,100.00
2023-10-05T08:01:57.962Z,100.00
2023-10-05T08:04:25.170Z,100.00
2023-10-05T08:06:51.962Z,100.00
2023-10-05T08:09:22.066Z,100.00
2023-10-05T08:11:51.297Z,100.00
2023-10-05T08:14:18.863Z,100.00
2023-10-05T08:16:46.796Z,100.00
2023-10-05T08:19:13.860Z,100.00
2023-10-05T08:21:42.186Z,100.00
2023-10-05T08:24:09.361Z,100.00
2023-10-05T08:26:36.261Z,100.00
2023-10-05T08:29:02.900Z,100.00
2023-10-05T08:31:29.629Z,100.00
2023-10-05T08:33:56.283Z,100.00
2023-10-05T08:36:23.113Z,100.00
2023-10-05T08:38:50.879Z,100.00
2023-10-05T08:41:32.981Z,100.00
2023-10-05T08:44:00.842Z,100.00
2023-10-05T08:46:29.122Z,100.00
2023-10-05T08:48:58.360Z,100.00
2023-10-05T08:51:26.010Z,100.00
2023-10-05T08:54:01.090Z,100.00
2023-10-05T08:56:27.662Z,100.00
2023-10-05T08:58:56.969Z,100.00
2023-10-05T09:01:32.229Z,100.00
2023-10-05T09:04:03.275Z,100.00
2023-10-05T09:06:31.663Z,100.00
2023-10-05T09:09:07.641Z,100.00
2023-10-05T09:11:35.018Z,100.00
2023-10-05T09:14:28.828Z,100.00
2023-10-05T09:17:08.721Z,100.00
2023-10-05T09:19:36.420Z,100.00
2023-10-05T09:22:03.130Z,100.00
2023-10-05T09:24:33.617Z,100.00
2023-10-05T09:27:11.044Z,100.00
2023-10-05T09:29:37.682Z,100.00
2023-10-05T09:32:10.025Z,100.00
2023-10-05T09:34:42.757Z,100.00
2023-10-05T09:37:11.806Z,100.00
2023-10-05T09:39:44.393Z,100.00
2023-10-05T09:42:28.662Z,100.00
2023-10-05T09:44:58.442Z,100.00
2023-10-05T09:47:26.652Z,100.00
2023-10-05T09:49:59.727Z,100.00
2023-10-05T09:52:32.827Z,100.00
2023-10-05T09:55:00.496Z,100.00
2023-10-05T09:57:27.666Z,100.00
2023-10-05T10:00:01.231Z,100.00
2023-10-05T10:02:33.340Z,100.00
2023-10-05T10:05:04.806Z,100.00
2023-10-05T10:07:33.775Z,100.00
2023-10-05T10:10:01.576Z,100.00
2023-10-05T10:12:40.201Z,100.00
2023-10-05T10:15:25.957Z,100.00
2023-10-05T10:18:04.683Z,96.96
2023-10-05T10:20:36.632Z,100.00
2023-10-05T10:23:20.272Z,100.00
2023-10-05T10:25:47.639Z,100.00
2023-10-05T10:28:52.197Z,91.53
2023-10-05T10:31:33.364Z,91.80
2023-10-05T10:34:21.455Z,97.51
2023-10-05T10:36:57.697Z,94.15
2023-10-05T10:39:30.372Z,83.31
2023-10-05T10:42:19.906Z,77.06
2023-10-05T10:44:52.507Z,85.46
2023-10-05T10:47:20.890Z,80.81
2023-10-05T10:50:40.090Z,66.79
2023-10-05T10:53:17.745Z,68.75
2023-10-05T10:55:52.316Z,88.14
2023-10-05T10:58:25.203Z,57.68
2023-10-05T11:01:00.211Z,85.44
2023-10-05T11:03:28.269Z,83.87
2023-10-05T11:05:55.859Z,57.77
2023-10-05T11:08:23.007Z,58.91
2023-10-05T11:11:10.902Z,69.60
2023-10-05T11:13:44.673Z,62.14
2023-10-05T11:16:12.548Z,65.77
2023-10-05T11:18:59.820Z,75.48
2023-10-05T11:21:35.035Z,67.47
2023-10-05T11:24:08.029Z,73.26
2023-10-05T11:26:48.894Z,69.45
2023-10-05T11:29:22.580Z,71.33
2023-10-05T11:32:01.784Z,73.83
2023-10-05T11:35:17.024Z,66.32
2023-10-05T11:37:32.174Z,70.70
2023-10-05T11:40:01.742Z,60.22
2023-10-05T11:42:36.412Z,66.80
2023-10-05T11:45:13.808Z,57.06
2023-10-05T11:47:46.781Z,62.23
2023-10-05T11:50:25.340Z,61.56
2023-10-05T11:52:55.813Z,63.47
2023-10-05T11:55:22.498Z,69.15
2023-10-05T11:57:49.677Z,77.45
2023-10-05T12:00:19.258Z,68.89
2023-10-05T12:02:47.136Z,70.41
2023-10-05T12:05:14.169Z,66.99
2023-10-05T12:07:46.637Z,71.72
2023-10-05T12:10:14.620Z,72.26
2023-10-05T12:12:50.006Z,68.69
2023-10-05T12:15:18.540Z,71.25
2023-10-05T12:17:47.053Z,73.67
2023-10-05T12:20:17.147Z,82.31
2023-10-05T12:22:44.752Z,74.03
2023-10-05T12:25:16.069Z,74.48
2023-10-05T12:27:43.186Z,79.04
2023-10-05T12:30:13.173Z,77.61
2023-10-05T12:32:41.339Z,88.06
2023-10-05T12:35:14.314Z,79.86
2023-10-05T12:37:42.908Z,76.91
2023-10-05T12:40:19.504Z,82.63
2023-10-05T12:42:58.878Z,82.60
2023-10-05T12:45:32.802Z,74.51
2023-10-05T12:47:59.738Z,80.03
2023-10-05T12:50:28.775Z,81.94
2023-10-05T12:52:57.241Z,82.60
2023-10-05T12:55:24.619Z,77.67
2023-10-05T12:57:52.003Z,77.05
2023-10-05T13:00:23.460Z,80.97
2023-10-05T13:02:53.286Z,87.69
2023-10-05T13:05:32.418Z,79.34
2023-10-05T13:08:04.096Z,79.80
2023-10-05T13:10:34.472Z,73.46
2023-10-05T13:13:10.891Z,74.88
2023-10-05T13:15:38.732Z,79.86
2023-10-05T13:18:21.291Z,85.20
2023-10-05T13:20:50.347Z,80.33
2023-10-05T13:23:20.450Z,79.91
2023-10-05T13:25:50.610Z,76.66
2023-10-05T13:28:21.857Z,77.16
2023-10-05T13:30:48.731Z,82.25
2023-10-05T13:33:22.233Z,86.04
2023-10-05T13:35:50.122Z,81.85
2023-10-05T13:38:18.810Z,93.91
2023-10-05T13:41:20.558Z,84.57
2023-10-05T13:43:50.443Z,87.88
2023-10-05T13:46:18.195Z,91.36
2023-10-05T13:48:45.551Z,92.77
2023-10-05T13:51:13.342Z,87.26
2023-10-05T13:53:42.454Z,89.11
2023-10-05T13:56:12.441Z,94.16
2023-10-05T13:58:42.518Z,97.30
2023-10-05T14:01:17.158Z,100.00
2023-10-05T14:03:47.159Z,99.87
2023-10-05T14:06:14.671Z,98.61
2023-10-05T14:08:45.258Z,100.00
2023-10-05T14:11:12.047Z,100.00
2023-10-05T14:13:38.690Z,96.76
2023-10-05T14:16:05.659Z,100.00
2023-10-05T14:18:34.701Z,100.00
2023-10-05T14:21:04.192Z,100.00
2023-10-05T14:23:30.843Z,100.00
2023-10-05T14:25:57.656Z,100.00
2023-10-05T14:28:26.951Z,100.00
2023-10-05T14:30:54.074Z,100.00
2023-10-05T14:33:24.241Z,100.00
2023-10-05T14:35:58.028Z,100.00
2023-10-05T14:38:26.369Z,100.00
2023-10-05T14:40:57.825Z,100.00
2023-10-05T14:43:33.659Z,100.00
2023-10-05T14:46:01.421Z,99.58
2023-10-05T14:48:31.783Z,100.00
2023-10-05T14:51:02.823Z,100.00
2023-10-05T14:53:30.931Z,100.00
2023-10-05T14:55:58.340Z,100.00
2023-10-05T14:58:26.661Z,100.00
2023-10-05T15:00:57.701Z,100.00
2023-10-05T15:03:26.340Z,100.00
2023-10-05T15:05:53.694Z,100.00
2023-10-05T15:08:20.373Z,100.00
2023-10-05T15:10:46.969Z,100.00
2023-10-05T15:13:15.594Z,100.00
2023-10-05T15:15:43.191Z,100.00
2023-10-05T15:18:10.458Z,100.00
2023-10-05T15:20:39.207Z,100.00
2023-10-05T15:23:05.984Z,100.00
2023-10-05T15:25:34.356Z,100.00
2023-10-05T15:28:01.183Z,100.00
2023-10-05T15:30:27.723Z,100.00
2023-10-05T15:32:54.291Z,100.00
2023-10-05T15:35:21.265Z,100.00
2023-10-05T15:37:49.597Z,100.00
2023-10-05T15:40:20.173Z,100.00
2023-10-05T15:42:55.078Z,100.00
2023-10-05T15:45:24.852Z,100.00
2023-10-05T15:47:55.604Z,100.00
2023-10-05T15:50:23.805Z,100.00
2023-10-05T15:52:57.577Z,100.00
2023-10-05T15:55:25.142Z,100.00
2023-10-05T15:57:52.563Z,100.00
2023-10-05T16:00:29.019Z,100.00
2023-10-05T16:03:00.662Z,100.00
2023-10-05T16:05:29.070Z,100.00
2023-10-05T16:08:00.693Z,100.00
2023-10-05T16:10:28.823Z,100.00
2023-10-05T16:12:57.858Z,100.00
2023-10-05T16:15:24.923Z,98.00
2023-10-05T16:17:52.620Z,100.00
2023-10-05T16:20:27.019Z,100.00
2023-10-05T16:22:59.164Z,100.00
2023-10-05T16:25:28.067Z,100.00
2023-10-05T16:27:55.157Z,100.00
2023-10-05T16:30:23.016Z,100.00
2023-10-05T16:32:51.986Z,100.00
2023-10-05T16:35:19.426Z,100.00
2023-10-05T16:37:46.466Z,100.00
2023-10-05T16:40:14.489Z,100.00
2023-10-05T16:42:42.976Z,100.00
2023-10-05T16:45:12.380Z,100.00
2023-10-05T16:47:42.243Z,100.00
2023-10-05T16:50:13.777Z,100.00
2023-10-05T16:52:40.993Z,100.00
2023-10-05T16:55:08.091Z,100.00
2023-10-05T16:57:34.648Z,100.00
2023-10-05T17:00:07.810Z,100.00
2023-10-05T17:02:35.192Z,100.00
2023-10-05T17:05:11.860Z,100.00
2023-10-05T17:07:38.444Z,100.00
2023-10-05T17:10:06.573Z,100.00
2023-10-05T17:12:33.028Z,100.00
2023-10-05T17:14:59.555Z,100.00
2023-10-05T17:17:26.360Z,100.00
2023-10-05T17:19:52.924Z,100.00
2023-10-05T17:22:19.554Z,100.00
2023-10-05T17:24:53.478Z,100.00
2023-10-05T17:27:26.916Z,100.00
2023-10-05T17:29:54.075Z,100.00
2023-10-05T17:32:20.584Z,100.00
2023-10-05T17:34:49.895Z,100.00
2023-10-05T17:37:19.283Z,100.00
2023-10-05T17:39:46.377Z,100.00
2023-10-05T17:42:13.146Z,100.00
2023-10-05T17:44:41.014Z,100.00
2023-10-05T17:47:09.373Z,100.00
2023-10-05T17:49:42.301Z,100.00
2023-10-05T17:52:08.961Z,100.00
2023-10-05T17:54:35.718Z,100.00
2023-10-05T17:57:03.454Z,100.00
2023-10-05T17:59:30.141Z,100.00
2023-10-05T18:01:57.165Z,100.00
2023-10-05T18:04:25.795Z,100.00
2023-10-05T18:06:52.364Z,100.00
2023-10-05T18:09:18.849Z,100.00
2023-10-05T18:11:45.641Z,100.00
2023-10-05T18:14:15.429Z,100.00
2023-10-05T18:16:42.950Z,100.00
2023-10-05T18:19:10.583Z,100.00
2023-10-05T18:21:40.626Z,100.00
2023-10-05T18:24:09.054Z,100.00
2023-10-05T18:26:35.656Z,100.00
2023-10-05T18:29:02.140Z,100.00
2023-10-05T18:31:31.229Z,100.00
2023-10-05T18:33:58.320Z,100.00
2023-10-05T18:36:25.685Z,100.00
2023-10-05T18:38:52.743Z,100.00
2023-10-05T18:41:21.207Z,100.00
2023-10-05T18:43:48.918Z,100.00
2023-10-05T18:46:21.967Z,100.00
2023-10-05T18:48:48.551Z,100.00
2023-10-05T18:51:15.076Z,100.00
2023-10-05T18:53:41.684Z,100.00
2023-10-05T18:56:08.692Z,100.00
2023-10-05T18:58:36.666Z,100.00
2023-10-05T19:01:04.157Z,100.00
2023-10-05T19:03:30.888Z,100.00
2023-10-05T19:05:58.010Z,100.00
2023-10-05T19:08:24.543Z,100.00
2023-10-05T19:10:51.187Z,100.00
2023-10-05T19:13:17.797Z,100.00
2023-10-05T19:15:44.463Z,100.00
2023-10-05T19:18:11.076Z,100.00
2023-10-05T19:20:37.883Z,100.00
2023-10-05T19:23:10.215Z,100.00
2023-10-05T19:25:40.399Z,100.00
2023-10-05T19:28:12.992Z,100.00
2023-10-05T19:30:40.206Z,100.00
2023-10-05T19:33:07.232Z,100.00
2023-10-05T19:35:34.000Z,100.00
2023-10-05T19:38:00.931Z,100.00
2023-10-05T19:40:27.821Z,100.00
2023-10-05T19:42:56.001Z,100.00
2023-10-05T19:45:22.941Z,100.00
2023-10-05T19:47:49.830Z,100.00
2023-10-05T19:50:16.459Z,100.00
2023-10-05T19:52:42.986Z,100.00
2023-10-05T19:55:12.164Z,100.00
2023-10-05T19:57:38.866Z,100.00
2023-10-05T20:00:11.999Z,100.00
2023-10-05T20:02:40.453Z,100.00
2023-10-05T20:05:07.824Z,100.00
2023-10-05T20:07:34.553Z,100.00
2023-10-05T20:10:01.374Z,100.00
2023-10-05T20:12:28.979Z,100.00
2023-10-05T20:14:55.739Z,100.00
2023-10-05T20:17:22.394Z,100.00
2023-10-05T20:19:49.111Z,100.00
2023-10-05T20:22:15.661Z,100.00
2023-10-05T20:24:42.865Z,100.00
2023-10-05T20:27:16.264Z,100.00
2023-10-05T20:29:44.055Z,100.00
2023-10-05T20:32:11.493Z,100.00
2023-10-05T20:34:38.349Z,100.00
2023-10-05T20:37:05.002Z,100.00
2023-10-05T20:39:31.547Z,100.00
2023-10-05T20:41:58.627Z,100.00
2023-10-05T20:44:28.386Z,100.00
2023-10-05T20:46:57.308Z,100.00
2023-10-05T20:49:24.765Z,100.00
2023-10-05T20:51:51.667Z,100.00
2023-10-05T20:54:18.316Z,100.00
2023-10-05T20:56:45.748Z,100.00
2023-10-05T20:59:13.457Z,100.00
2023-10-05T21:01:40.133Z,100.00
2023-10-05T21:04:06.845Z,100.00
2023-10-05T21:06:33.648Z,100.00
2023-10-05T21:09:00.207Z,100.00
2023-10-05T21:11:26.769Z,100.00
2023-10-05T21:13:53.960Z,100.00
2023-10-05T21:16:20.865Z,100.00
2023-10-05T21:18:47.466Z,100.00
2023-10-05T21:21:14.922Z,100.00
2023-10-05T21:23:41.454Z,100.00
2023-10-05T21:26:07.934Z,100.00
2023-10-05T21:28:36.307Z,100.00
2023-10-05T21:31:05.985Z,100.00
2023-10-05T21:33:32.681Z,100.00
2023-10-05T21:35:59.187Z,100.00
2023-10-05T21:38:25.849Z,100.00
2023-10-05T21:40:52.572Z,100.00
2023-10-05T21:43:19.103Z,100.00
2023-10-05T21:45:45.721Z,100.00
2023-10-05T21:48:12.278Z,100.00
2023-10-05T21:50:39.075Z,100.00
2023-10-05T21:53:06.330Z,100.00
2023-10-05T21:55:33.044Z,100.00
2023-10-05T21:57:59.671Z,100.00
2023-10-05T22:00:41.587Z,100.00
2023-10-05T22:03:10.177Z,100.00
2023-10-05T22:05:37.778Z,100.00
2023-10-05T22:08:08.342Z,100.00
2023-10-05T22:10:36.280Z,100.00
2023-10-05T22:13:04.218Z,100.00
2023-10-05T22:15:33.805Z,100.00
2023-10-05T22:18:01.301Z,100.00
2023-10-05T22:20:29.425Z,100.00
2023-10-05T22:22:56.214Z,100.00
2023-10-05T22:25:23.763Z,100.00
2023-10-05T22:27:51.099Z,100.00
2023-10-05T22:30:18.314Z,100.00
2023-10-05T22:32:47.713Z,100.00
2023-10-05T22:35:14.254Z,100.00
2023-10-05T22:37:40.853Z,100.00
2023-10-05T22:40:07.847Z,100.00
2023-10-05T22:42:35.668Z,100.00
2023-10-05T22:45:02.373Z,100.00
2023-10-05T22:47:29.011Z,100.00
2023-10-05T22:49:55.820Z,100.00
2023-10-05T22:52:22.981Z,100.00
2023-10-05T22:54:49.644Z,100.00
2023-10-05T22:57:16.133Z,100.00
2023-10-05T22:59:44.194Z,100.00
2023-10-05T23:02:15.400Z,100.00
2023-10-05T23:04:42.387Z,100.00
2023-10-05T23:07:09.322Z,100.00
2023-10-05T23:09:39.832Z,100.00
2023-10-05T23:12:11.706Z,100.00
2023-10-05T23:14:49.500Z,100.00
2023-10-05T23:17:19.287Z,100.00
2023-10-05T23:19:45.943Z,100.00
2023-10-05T23:22:13.148Z,100.00
2023-10-05T23:24:39.859Z,100.00
2023-10-05T23:27:06.462Z,100.00
2023-10-05T23:29:34.245Z,100.00
2023-10-05T23:32:01.283Z,100.00
2023-10-05T23:34:29.545Z,100.00
2023-10-05T23:36:59.335Z,100.00
2023-10-05T23:39:26.270Z,100.00
2023-10-05T23:41:55.669Z,100.00
2023-10-05T23:44:24.023Z,100.00
2023-10-05T23:47:15.134Z,100.00
2023-10-05T23:49:44.841Z,100.00
2023-10-05T23:52:11.906Z,100.00
2023-10-05T23:54:41.339Z,100.00
2023-10-05T23:57:12.941Z,100.00
2023-10-05T23:59:39.561Z,100.00
